Time;durP1;ratioP1;P1;durP2;ratioP2;P2;SDS_P1;SDS_P2;PMS_P1;PMS_P2;Temp;Humidity;BMP_temperature;BMP_pressure;BME280_temperature;BME280_humidity;BME280_pressure;Samples;Min_cycle;Max_cycle;Signal;HPM_P1;HPM_P2
2021/03/06 00:00:19;;;;;;;;;70.33;53.33;;;;;;;;5048252;27;112544;-71
2021/03/06 00:02:45;;;;;;;;;69.67;53.33;;;;;;;;5045123;27;112442;-71
2021/03/06 00:05:11;;;;;;;;;66.67;55.00;;;;;;;;5047368;27;113935;-71
2021/03/06 00:07:38;;;;;;;;;69.00;53.67;;;;;;;;5049370;27;111931;-71
2021/03/06 00:10:05;;;;;;;;;67.67;52.67;;;;;;;;5046061;27;113833;-72
2021/03/06 00:12:31;;;;;;;;;64.00;50.67;;;;;;;;5050052;27;114346;-70
2021/03/06 00:14:58;;;;;;;;;64.33;50.33;;;;;;;;5039263;27;112117;-72
2021/03/06 00:17:24;;;;;;;;;60.33;50.33;;;;;;;;5049538;27;113469;-71
2021/03/06 00:19:50;;;;;;;;;62.33;50.33;;;;;;;;5051004;27;114041;-71
2021/03/06 00:22:16;;;;;;;;;56.00;45.67;;;;;;;;5047907;27;113581;-70
2021/03/06 00:24:42;;;;;;;;;59.67;47.67;;;;;;;;5047730;27;114087;-71
2021/03/06 00:27:08;;;;;;;;;57.00;47.00;;;;;;;;5046286;27;113014;-72
2021/03/06 00:29:35;;;;;;;;;59.33;47.33;;;;;;;;5046838;27;113437;-72
2021/03/06 00:32:02;;;;;;;;;60.67;48.33;;;;;;;;5041973;27;112990;-71
2021/03/06 00:34:28;;;;;;;;;59.67;46.00;;;;;;;;5045785;27;111914;-70
2021/03/06 00:36:54;;;;;;;;;60.33;47.00;;;;;;;;5048583;27;113551;-71
2021/03/06 00:39:20;;;;;;;;;60.67;45.00;;;;;;;;5043183;27;113006;-70
2021/03/06 00:41:46;;;;;;;;;50.67;44.33;;;;;;;;5052274;27;111999;-70
2021/03/06 00:44:12;;;;;;;;;58.33;46.67;;;;;;;;5048172;27;114090;-72
2021/03/06 00:46:38;;;;;;;;;59.33;46.00;;;;;;;;5046203;27;111909;-70
2021/03/06 00:49:05;;;;;;;;;55.67;47.33;;;;;;;;5048917;27;113803;-71
2021/03/06 00:51:31;;;;;;;;;61.00;48.00;;;;;;;;5045338;27;114434;-71
2021/03/06 00:53:57;;;;;;;;;62.67;48.33;;;;;;;;5048452;27;112023;-71
2021/03/06 00:56:23;;;;;;;;;55.00;44.33;;;;;;;;5046675;27;113497;-71
2021/03/06 00:58:49;;;;;;;;;57.00;48.00;;;;;;;;5039661;27;112843;-70
2021/03/06 01:01:15;;;;;;;;;61.33;48.00;;;;;;;;5050509;27;113070;-70
2021/03/06 01:03:41;;;;;;;;;59.75;48.75;;;;;;;;5046608;27;114226;-70
2021/03/06 01:06:07;;;;;;;;;59.33;47.00;;;;;;;;5049139;27;111904;-71
2021/03/06 01:08:33;;;;;;;;;62.00;50.75;;;;;;;;5045681;27;113696;-69
2021/03/06 01:11:00;;;;;;;;;60.67;49.67;;;;;;;;5044558;27;114636;-71
2021/03/06 01:13:26;;;;;;;;;59.25;49.00;;;;;;;;5048671;27;112119;-70
2021/03/06 01:15:52;;;;;;;;;63.67;51.33;;;;;;;;5045685;27;113489;-70
2021/03/06 01:18:19;;;;;;;;;63.25;50.50;;;;;;;;5046186;27;114018;-70
2021/03/06 01:20:45;;;;;;;;;62.00;48.67;;;;;;;;5043288;27;112761;-69
2021/03/06 01:23:12;;;;;;;;;60.00;47.25;;;;;;;;5049621;27;113542;-71
2021/03/06 01:25:39;;;;;;;;;68.25;50.25;;;;;;;;5048608;27;111840;-70
2021/03/06 01:28:06;;;;;;;;;58.67;46.00;;;;;;;;5049754;27;113500;-70
2021/03/06 01:30:32;;;;;;;;;60.75;49.00;;;;;;;;5044114;27;114047;-70
2021/03/06 01:32:57;;;;;;;;;65.50;51.75;;;;;;;;5047698;27;111909;-70
2021/03/06 01:35:25;;;;;;;;;70.25;52.50;;;;;;;;5045900;27;113257;-70
2021/03/06 01:37:52;;;;;;;;;69.50;56.00;;;;;;;;5046063;27;113964;-70
2021/03/06 01:40:21;;;;;;;;;67.75;54.75;;;;;;;;5046639;27;112323;-70
2021/03/06 01:42:47;;;;;;;;;67.50;53.25;;;;;;;;5041989;27;112961;-70
2021/03/06 01:45:13;;;;;;;;;68.50;54.00;;;;;;;;5049792;27;113923;-70
2021/03/06 01:47:39;;;;;;;;;65.00;51.50;;;;;;;;5045786;27;113088;-70
2021/03/06 01:50:06;;;;;;;;;71.75;54.75;;;;;;;;5048177;27;114804;-70
2021/03/06 01:52:32;;;;;;;;;67.25;55.25;;;;;;;;5044755;27;112058;-70
2021/03/06 01:54:58;;;;;;;;;61.50;49.75;;;;;;;;5047887;27;113620;-70
2021/03/06 01:57:25;;;;;;;;;69.75;55.00;;;;;;;;5045192;27;114545;-70
2021/03/06 01:59:52;;;;;;;;;66.00;51.00;;;;;;;;5043412;27;112236;-70
2021/03/06 02:02:18;;;;;;;;;68.75;53.50;;;;;;;;5046826;27;114361;-70
2021/03/06 02:04:44;;;;;;;;;68.75;53.75;;;;;;;;5045805;27;114148;-70
2021/03/06 02:07:10;;;;;;;;;63.25;51.75;;;;;;;;5051695;27;112179;-70
2021/03/06 02:09:36;;;;;;;;;70.75;55.25;;;;;;;;5043967;27;114166;-70
2021/03/06 02:12:05;;;;;;;;;65.50;54.25;;;;;;;;5044992;27;112402;-70
2021/03/06 02:14:46;;;;;;;;;66.50;53.25;;;;;;;;5044845;27;113374;-70
2021/03/06 02:17:19;;;;;;;;;62.75;49.00;;;;;;;;5046389;27;114016;-69
2021/03/06 02:20:03;;;;;;;;;70.25;56.00;;;;;;;;5045664;27;112390;-70
2021/03/06 02:22:43;;;;;;;;;67.75;50.75;;;;;;;;5045104;27;113584;-70
2021/03/06 02:25:16;;;;;;;;;72.00;55.75;;;;;;;;5044113;27;114869;-69
2021/03/06 02:27:46;;;;;;;;;68.75;55.75;;;;;;;;5042219;27;112449;-70
2021/03/06 02:30:13;;;;;;;;;68.75;54.25;;;;;;;;5048119;27;113837;-70
2021/03/06 02:32:41;;;;;;;;;66.75;55.00;;;;;;;;5047702;27;111971;-70
2021/03/06 02:35:09;;;;;;;;;69.75;55.00;;;;;;;;5044302;27;113664;-70
2021/03/06 02:37:37;;;;;;;;;65.75;51.00;;;;;;;;5047657;27;114075;-70
2021/03/06 02:40:04;;;;;;;;;68.50;54.25;;;;;;;;5045186;27;111946;-69
2021/03/06 02:42:31;;;;;;;;;66.75;54.25;;;;;;;;5047896;27;113587;-70
2021/03/06 02:44:58;;;;;;;;;66.75;54.50;;;;;;;;5043914;27;114049;-70
2021/03/06 02:47:25;;;;;;;;;69.25;54.75;;;;;;;;5047194;27;111945;-70
2021/03/06 02:49:51;;;;;;;;;70.00;55.25;;;;;;;;5045982;27;112929;-70
2021/03/06 02:52:17;;;;;;;;;57.25;45.50;;;;;;;;5048565;27;112040;-70
2021/03/06 02:54:43;;;;;;;;;63.75;50.25;;;;;;;;5044327;27;112877;-70
2021/03/06 02:57:09;;;;;;;;;56.25;44.50;;;;;;;;5044186;27;113995;-70
2021/03/06 02:59:41;;;;;;;;;64.75;51.00;;;;;;;;5047903;27;111829;-70
2021/03/06 03:02:13;;;;;;;;;66.00;52.00;;;;;;;;5044466;27;113492;-70
2021/03/06 03:04:46;;;;;;;;;62.00;50.50;;;;;;;;5043749;27;114439;-69
2021/03/06 03:07:15;;;;;;;;;70.50;56.75;;;;;;;;5047092;27;111849;-70
2021/03/06 03:09:43;;;;;;;;;65.00;52.75;;;;;;;;5044470;27;113478;-70
2021/03/06 03:12:14;;;;;;;;;67.50;54.00;;;;;;;;5044469;27;112945;-70
2021/03/06 03:14:47;;;;;;;;;70.50;53.50;;;;;;;;5047301;27;113485;-70
2021/03/06 03:17:15;;;;;;;;;63.25;52.75;;;;;;;;5043508;27;114145;-69
2021/03/06 03:19:47;;;;;;;;;65.25;50.50;;;;;;;;5040158;27;111913;-70
2021/03/06 03:22:16;;;;;;;;;66.25;53.00;;;;;;;;5044863;27;113486;-70
2021/03/06 03:24:42;;;;;;;;;62.75;51.00;;;;;;;;5048798;27;113983;-70
2021/03/06 03:27:09;;;;;;;;;61.75;48.50;;;;;;;;5048323;27;111876;-70
2021/03/06 03:29:36;;;;;;;;;64.75;48.50;;;;;;;;5047567;27;113791;-71
2021/03/06 03:32:03;;;;;;;;;59.00;49.00;;;;;;;;5049761;27;113958;-70
2021/03/06 03:34:30;;;;;;;;;57.50;45.00;;;;;;;;5051688;27;113171;-71
2021/03/06 03:36:57;;;;;;;;;60.00;50.50;;;;;;;;5048775;27;113654;-70
2021/03/06 03:39:23;;;;;;;;;62.75;50.25;;;;;;;;5049288;27;111896;-70
2021/03/06 03:41:50;;;;;;;;;60.00;49.75;;;;;;;;5047403;27;113868;-71
2021/03/06 03:44:16;;;;;;;;;58.00;48.00;;;;;;;;5047242;27;114242;-70
2021/03/06 03:46:42;;;;;;;;;65.25;50.50;;;;;;;;5049471;27;111979;-70
2021/03/06 03:49:13;;;;;;;;;60.50;50.75;;;;;;;;5047973;27;113510;-70
2021/03/06 03:51:39;;;;;;;;;58.33;45.00;;;;;;;;5046762;27;114201;-70
2021/03/06 03:54:07;;;;;;;;;60.00;47.25;;;;;;;;5043193;27;112016;-70
2021/03/06 03:56:33;;;;;;;;;65.33;50.33;;;;;;;;5053892;27;113188;-70
2021/03/06 03:59:00;;;;;;;;;55.33;45.00;;;;;;;;5048119;27;111928;-70
2021/03/06 04:01:26;;;;;;;;;61.33;49.00;;;;;;;;5049302;27;113753;-70
2021/03/06 04:03:52;;;;;;;;;42.00;37.67;;;;;;;;5047965;27;114269;-70
2021/03/06 04:06:18;;;;;;;;;48.00;40.00;;;;;;;;5048604;27;111869;-70
2021/03/06 04:08:44;;;;;;;;;34.67;30.00;;;;;;;;5050121;27;113318;-70
2021/03/06 04:11:11;;;;;;;;;26.00;21.00;;;;;;;;5046526;27;114340;-70
2021/03/06 04:13:37;;;;;;;;;26.33;23.33;;;;;;;;5049865;27;111848;-70
2021/03/06 04:16:03;;;;;;;;;27.33;22.00;;;;;;;;5047270;27;113474;-69
2021/03/06 04:18:29;;;;;;;;;43.33;36.67;;;;;;;;5052713;27;113988;-71
2021/03/06 04:20:55;;;;;;;;;58.00;46.00;;;;;;;;5048331;27;113364;-71
2021/03/06 04:23:21;;;;;;;;;59.33;47.33;;;;;;;;5047886;27;114034;-70
2021/03/06 04:25:47;;;;;;;;;56.33;47.00;;;;;;;;5049202;27;112065;-70
2021/03/06 04:28:14;;;;;;;;;54.67;45.00;;;;;;;;5046796;27;113469;-70
2021/03/06 04:30:40;;;;;;;;;53.00;43.00;;;;;;;;5049748;27;114231;-71
2021/03/06 04:33:06;;;;;;;;;56.00;45.00;;;;;;;;5047109;27;111955;-71
2021/03/06 04:35:32;;;;;;;;;48.67;41.67;;;;;;;;5049229;27;114018;-71
2021/03/06 04:37:58;;;;;;;;;55.00;45.00;;;;;;;;5046768;27;113934;-71
2021/03/06 04:40:24;;;;;;;;;59.67;44.00;;;;;;;;5052002;27;111862;-71
2021/03/06 04:42:50;;;;;;;;;56.33;44.00;;;;;;;;5048351;27;114200;-77
2021/03/06 04:45:16;;;;;;;;;59.67;46.33;;;;;;;;5047208;27;112129;-72
2021/03/06 04:47:43;;;;;;;;;55.67;42.67;;;;;;;;5049576;27;113613;-72
2021/03/06 04:50:10;;;;;;;;;49.33;39.00;;;;;;;;5046387;27;114688;-71
2021/03/06 04:52:36;;;;;;;;;44.67;36.33;;;;;;;;5046324;27;111928;-72
2021/03/06 04:55:02;;;;;;;;;38.67;32.33;;;;;;;;5049249;27;113489;-71
2021/03/06 04:57:28;;;;;;;;;36.67;31.00;;;;;;;;5046044;27;114009;-71
2021/03/06 04:59:54;;;;;;;;;28.67;26.00;;;;;;;;5052379;27;112344;-72
2021/03/06 05:02:21;;;;;;;;;15.00;15.00;;;;;;;;5048080;27;114389;-72
2021/03/06 05:04:47;;;;;;;;;12.67;10.00;;;;;;;;5042375;27;113209;-72
2021/03/06 05:07:13;;;;;;;;;9.33;7.00;;;;;;;;5049302;27;113784;-72
2021/03/06 05:09:39;;;;;;;;;8.67;8.00;;;;;;;;5045859;27;113871;-72
2021/03/06 05:12:05;;;;;;;;;6.75;5.75;;;;;;;;5049609;27;111950;-72
2021/03/06 05:14:31;;;;;;;;;6.33;5.00;;;;;;;;5040546;27;113920;-71
2021/03/06 05:16:57;;;;;;;;;10.33;6.00;;;;;;;;5046588;27;113831;-71
2021/03/06 05:19:24;;;;;;;;;3.00;3.00;;;;;;;;5040767;27;111913;-70
2021/03/06 05:21:50;;;;;;;;;1.00;1.00;;;;;;;;5050269;27;113619;-71
2021/03/06 05:24:16;;;;;;;;;2.00;2.00;;;;;;;;5049035;27;111940;-70
2021/03/06 05:26:42;;;;;;;;;5.00;1.00;;;;;;;;5042299;27;112751;-70
2021/03/06 05:29:08;;;;;;;;;3.25;1.00;;;;;;;;5048378;27;113955;-70
2021/03/06 05:31:34;;;;;;;;;4.25;2.00;;;;;;;;5044580;27;113032;-70
2021/03/06 05:34:00;;;;;;;;;1.00;1.00;;;;;;;;5046046;27;113735;-70
2021/03/06 05:36:26;;;;;;;;;0.25;0.25;;;;;;;;5046846;27;114755;-71
2021/03/06 05:38:52;;;;;;;;;2.00;1.00;;;;;;;;5047658;27;111974;-71
2021/03/06 05:41:19;;;;;;;;;0.75;0.75;;;;;;;;5045965;27;113584;-72
2021/03/06 05:43:45;;;;;;;;;0.00;0.00;;;;;;;;5049075;27;114428;-71
2021/03/06 05:46:13;;;;;;;;;0.00;0.00;;;;;;;;5048277;27;114229;-70
2021/03/06 05:48:39;;;;;;;;;1.75;1.00;;;;;;;;5045340;27;113995;-71
2021/03/06 05:51:06;;;;;;;;;0.00;0.00;;;;;;;;5048682;27;111932;-70
2021/03/06 05:53:33;;;;;;;;;1.00;1.00;;;;;;;;5046062;27;113567;-70
2021/03/06 05:55:59;;;;;;;;;1.00;1.00;;;;;;;;5047102;27;114280;-70
2021/03/06 05:58:28;;;;;;;;;0.00;0.00;;;;;;;;5046921;27;111935;-70
2021/03/06 06:00:54;;;;;;;;;1.00;1.00;;;;;;;;5040328;27;112530;-70
2021/03/06 06:03:22;;;;;;;;;1.00;1.00;;;;;;;;5047088;27;114019;-71
2021/03/06 06:05:48;;;;;;;;;0.00;0.00;;;;;;;;5046736;27;111989;-71
2021/03/06 06:08:14;;;;;;;;;2.00;2.00;;;;;;;;5045089;27;113042;-71
2021/03/06 06:10:41;;;;;;;;;0.00;0.00;;;;;;;;5045146;27;111945;-71
2021/03/06 06:13:07;;;;;;;;;1.00;0.00;;;;;;;;5048621;27;113633;-71
2021/03/06 06:15:33;;;;;;;;;1.00;1.00;;;;;;;;5044923;27;114201;-71
2021/03/06 06:17:59;;;;;;;;;1.25;1.00;;;;;;;;5047642;27;111842;-71
2021/03/06 06:20:25;;;;;;;;;0.00;0.00;;;;;;;;5039692;27;112410;-71
2021/03/06 06:23:06;;;;;;;;;0.00;0.00;;;;;;;;5042168;27;112575;-69
2021/03/06 06:25:32;;;;;;;;;0.25;0.25;;;;;;;;5045413;27;111928;-70
2021/03/06 06:28:03;;;;;;;;;0.00;0.00;;;;;;;;5043686;27;112625;-70
2021/03/06 06:30:29;;;;;;;;;1.75;1.00;;;;;;;;5046227;27;111994;-70
2021/03/06 06:32:55;;;;;;;;;1.00;1.00;;;;;;;;5046965;27;113388;-70
2021/03/06 06:35:21;;;;;;;;;2.00;1.00;;;;;;;;5046976;27;114102;-70
2021/03/06 06:37:57;;;;;;;;;1.00;1.00;;;;;;;;5045221;27;111947;-70
2021/03/06 06:40:24;;;;;;;;;0.25;0.00;;;;;;;;5046339;27;113723;-70
2021/03/06 06:42:50;;;;;;;;;2.75;1.00;;;;;;;;5045725;27;114926;-70
2021/03/06 06:45:17;;;;;;;;;1.50;1.50;;;;;;;;5047544;27;112060;-70
2021/03/06 06:47:44;;;;;;;;;1.00;0.00;;;;;;;;5044241;27;113212;-70
2021/03/06 06:50:11;;;;;;;;;0.00;0.00;;;;;;;;5051622;27;114109;-70
2021/03/06 06:52:38;;;;;;;;;0.75;0.00;;;;;;;;5044236;27;113038;-70
2021/03/06 06:55:05;;;;;;;;;1.00;0.00;;;;;;;;5047647;27;114046;-70
2021/03/06 06:57:31;;;;;;;;;0.00;0.00;;;;;;;;5045393;27;112314;-70
2021/03/06 06:59:58;;;;;;;;;0.00;0.00;;;;;;;;5049718;27;113418;-70
2021/03/06 07:02:25;;;;;;;;;0.00;0.00;;;;;;;;5042487;27;113861;-70
2021/03/06 07:04:52;;;;;;;;;0.00;0.00;;;;;;;;5049645;27;111804;-70
2021/03/06 07:07:18;;;;;;;;;0.75;0.00;;;;;;;;5050895;27;114580;-70
2021/03/06 07:09:58;;;;;;;;;0.00;0.00;;;;;;;;5051649;27;114246;-70
2021/03/06 07:12:24;;;;;;;;;0.00;0.00;;;;;;;;5049815;27;113759;-70
2021/03/06 07:14:50;;;;;;;;;0.00;0.00;;;;;;;;5044878;27;113380;-70
2021/03/06 07:17:16;;;;;;;;;0.50;0.25;;;;;;;;5049268;27;112026;-71
2021/03/06 07:19:44;;;;;;;;;0.00;0.00;;;;;;;;5049631;27;113606;-70
2021/03/06 07:22:10;;;;;;;;;0.00;0.00;;;;;;;;5051856;27;114889;-69
2021/03/06 07:24:36;;;;;;;;;1.00;1.00;;;;;;;;5046178;27;111983;-70
2021/03/06 07:27:02;;;;;;;;;0.00;0.00;;;;;;;;5046501;27;113499;-69
2021/03/06 07:29:28;;;;;;;;;1.00;1.00;;;;;;;;5046326;27;114310;-69
2021/03/06 07:31:55;;;;;;;;;0.75;0.00;;;;;;;;5052148;27;111877;-70
2021/03/06 07:34:22;;;;;;;;;0.00;0.00;;;;;;;;5048477;27;113784;-70
2021/03/06 07:36:50;;;;;;;;;1.00;0.00;;;;;;;;5042888;27;111959;-70
2021/03/06 07:39:17;;;;;;;;;0.75;0.75;;;;;;;;5049328;27;113738;-69
2021/03/06 07:41:55;;;;;;;;;0.00;0.00;;;;;;;;5044898;27;114733;-70
2021/03/06 07:44:23;;;;;;;;;1.00;1.00;;;;;;;;5048628;27;113378;-70
2021/03/06 07:46:50;;;;;;;;;0.25;0.25;;;;;;;;5046641;27;113429;-70
2021/03/06 07:49:16;;;;;;;;;0.00;0.00;;;;;;;;5049250;27;114739;-70
2021/03/06 07:51:43;;;;;;;;;0.75;0.75;;;;;;;;5044734;27;112450;-69
2021/03/06 07:54:12;;;;;;;;;1.00;1.00;;;;;;;;5050979;27;113674;-69
2021/03/06 07:56:38;;;;;;;;;0.00;0.00;;;;;;;;5044618;27;111926;-69
2021/03/06 07:59:04;;;;;;;;;0.00;0.00;;;;;;;;5046232;27;113521;-68
2021/03/06 08:01:31;;;;;;;;;0.00;0.00;;;;;;;;5047580;27;114093;-69
2021/03/06 08:03:57;;;;;;;;;1.75;0.00;;;;;;;;5040580;27;112010;-69
2021/03/06 08:06:23;;;;;;;;;0.75;0.75;;;;;;;;5046481;27;113549;-70
2021/03/06 08:08:53;;;;;;;;;0.25;0.00;;;;;;;;5047129;27;114354;-69
2021/03/06 08:11:20;;;;;;;;;0.75;0.00;;;;;;;;5046266;27;111931;-69
2021/03/06 08:13:47;;;;;;;;;0.25;0.00;;;;;;;;5046555;27;114968;-70
2021/03/06 08:16:32;;;;;;;;;0.25;0.25;;;;;;;;5040623;27;113178;-70
2021/03/06 08:18:58;;;;;;;;;0.00;0.00;;;;;;;;5046328;27;113577;-69
2021/03/06 08:21:28;;;;;;;;;0.00;0.00;;;;;;;;5046426;27;114998;-69
2021/03/06 08:24:09;;;;;;;;;1.00;0.00;;;;;;;;5047070;27;111945;-69
2021/03/06 08:26:36;;;;;;;;;0.00;0.00;;;;;;;;5036205;27;113825;-69
2021/03/06 08:29:17;;;;;;;;;0.00;0.00;;;;;;;;5047713;27;114104;-69
2021/03/06 08:31:42;;;;;;;;;0.00;0.00;;;;;;;;5044627;27;112492;-70
2021/03/06 08:34:27;;;;;;;;;0.50;0.50;;;;;;;;5045030;27;113347;-71
2021/03/06 08:37:21;;;;;;;;;2.00;0.75;;;;;;;;5046271;27;114046;-71
2021/03/06 08:39:48;;;;;;;;;0.00;0.00;;;;;;;;5049509;27;112027;-72
2021/03/06 08:42:16;;;;;;;;;1.50;1.00;;;;;;;;5047382;27;114474;-71
2021/03/06 08:44:43;;;;;;;;;0.00;0.00;;;;;;;;5044512;27;112473;-71
2021/03/06 08:47:09;;;;;;;;;0.00;0.00;;;;;;;;5044825;27;113664;-72
2021/03/06 08:49:35;;;;;;;;;0.75;0.75;;;;;;;;5046928;27;114087;-72
2021/03/06 08:52:01;;;;;;;;;0.00;0.00;;;;;;;;5046543;27;111922;-72
2021/03/06 08:54:27;;;;;;;;;0.50;0.00;;;;;;;;5044200;27;111986;-72
2021/03/06 08:56:54;;;;;;;;;0.00;0.00;;;;;;;;5046247;27;114077;-72
2021/03/06 08:59:36;;;;;;;;;0.00;0.00;;;;;;;;5046442;27;111975;-72
2021/03/06 09:02:12;;;;;;;;;1.00;1.00;;;;;;;;5048656;27;113569;-72
2021/03/06 09:04:38;;;;;;;;;1.00;1.00;;;;;;;;5044887;27;112146;-72
2021/03/06 09:07:04;;;;;;;;;0.00;0.00;;;;;;;;5043071;27;113405;-69
2021/03/06 09:09:30;;;;;;;;;1.00;1.00;;;;;;;;5043407;27;115347;-71
2021/03/06 09:11:57;;;;;;;;;0.00;0.00;;;;;;;;5045904;27;112299;-72
2021/03/06 09:14:24;;;;;;;;;3.50;0.00;;;;;;;;5038654;27;113308;-72
2021/03/06 09:16:50;;;;;;;;;1.00;1.00;;;;;;;;5043229;27;114019;-75
2021/03/06 09:19:22;;;;;;;;;3.00;1.00;;;;;;;;5041662;27;112339;-70
2021/03/06 09:21:56;;;;;;;;;2.75;2.00;;;;;;;;5046905;27;113509;-72
2021/03/06 09:24:22;;;;;;;;;1.00;1.00;;;;;;;;5043366;27;112135;-72
2021/03/06 09:26:51;;;;;;;;;2.00;0.75;;;;;;;;5047307;27;113522;-72
2021/03/06 09:29:17;;;;;;;;;1.00;1.00;;;;;;;;5037170;27;112965;-71
2021/03/06 09:31:49;;;;;;;;;1.00;0.00;;;;;;;;5039807;27;111893;-71
2021/03/06 09:34:15;;;;;;;;;0.00;0.00;;;;;;;;5043212;27;112538;-72
2021/03/06 09:36:41;;;;;;;;;0.00;0.00;;;;;;;;5048283;27;114061;-74
2021/03/06 09:39:09;;;;;;;;;1.00;1.00;;;;;;;;5043764;27;112426;-79
2021/03/06 09:41:37;;;;;;;;;0.00;0.00;;;;;;;;5047519;27;113437;-72
2021/03/06 09:44:04;;;;;;;;;0.25;0.25;;;;;;;;5048795;27;114140;-72
2021/03/06 09:46:33;;;;;;;;;1.50;0.00;;;;;;;;5047692;27;113518;-73
2021/03/06 09:49:01;;;;;;;;;1.00;1.00;;;;;;;;5046086;27;114339;-70
2021/03/06 09:51:37;;;;;;;;;0.00;0.00;;;;;;;;5042432;27;112022;-70
2021/03/06 09:54:03;;;;;;;;;1.00;1.00;;;;;;;;5043512;27;113457;-70
2021/03/06 09:56:30;;;;;;;;;0.00;0.00;;;;;;;;5042102;27;113898;-70
2021/03/06 09:58:59;;;;;;;;;1.00;1.00;;;;;;;;5044072;27;112372;-71
2021/03/06 10:01:25;;;;;;;;;1.00;0.00;;;;;;;;5038598;27;112446;-70
2021/03/06 10:03:52;;;;;;;;;0.33;0.00;;;;;;;;5042869;27;114318;-70
2021/03/06 10:06:20;;;;;;;;;0.00;0.00;;;;;;;;5048012;27;112180;-70
2021/03/06 10:08:48;;;;;;;;;0.00;0.00;;;;;;;;5043524;27;114245;-70
2021/03/06 10:11:14;;;;;;;;;0.00;0.00;;;;;;;;5046262;27;112454;-70
2021/03/06 10:13:42;;;;;;;;;0.00;0.00;;;;;;;;5044665;27;113550;-70
2021/03/06 10:16:08;;;;;;;;;0.00;0.00;;;;;;;;5042795;27;113200;-70
2021/03/06 10:18:36;;;;;;;;;0.00;0.00;;;;;;;;5045364;27;112208;-70
2021/03/06 10:21:09;;;;;;;;;0.33;0.00;;;;;;;;5043505;27;113615;-70
2021/03/06 10:23:36;;;;;;;;;0.00;0.00;;;;;;;;5044137;27;114102;-71
2021/03/06 10:26:12;;;;;;;;;1.00;0.00;;;;;;;;5043601;27;112213;-71
2021/03/06 10:28:38;;;;;;;;;0.00;0.00;;;;;;;;5049239;27;113801;-68
2021/03/06 10:31:04;;;;;;;;;0.00;0.00;;;;;;;;5043924;27;112046;-68
2021/03/06 10:33:30;;;;;;;;;0.00;0.00;;;;;;;;5041055;27;112274;-68
2021/03/06 10:35:56;;;;;;;;;0.00;0.00;;;;;;;;5046519;27;114006;-68
2021/03/06 10:38:26;;;;;;;;;0.00;0.00;;;;;;;;5048129;27;113903;-68
2021/03/06 10:40:55;;;;;;;;;0.75;0.00;;;;;;;;5046531;27;113797;-69
2021/03/06 10:43:25;;;;;;;;;0.00;0.00;;;;;;;;5048956;27;112781;-71
2021/03/06 10:45:51;;;;;;;;;0.00;0.00;;;;;;;;5048698;27;112129;-70
2021/03/06 10:48:27;;;;;;;;;0.00;0.00;;;;;;;;5045480;27;112803;-69
2021/03/06 10:50:53;;;;;;;;;0.00;0.00;;;;;;;;5053319;27;114267;-70
2021/03/06 10:53:20;;;;;;;;;0.25;0.00;;;;;;;;5046706;27;114280;-71
2021/03/06 10:55:47;;;;;;;;;0.00;0.00;;;;;;;;5050632;27;112998;-71
2021/03/06 10:58:14;;;;;;;;;0.00;0.00;;;;;;;;5047730;27;112176;-72
2021/03/06 11:00:41;;;;;;;;;0.00;0.00;;;;;;;;5051634;27;113552;-71
2021/03/06 11:03:08;;;;;;;;;0.00;0.00;;;;;;;;5047311;27;114470;-71
2021/03/06 11:05:34;;;;;;;;;0.00;0.00;;;;;;;;5051395;27;112184;-70
2021/03/06 11:08:14;;;;;;;;;1.00;0.00;;;;;;;;5049049;27;113554;-71
2021/03/06 11:10:40;;;;;;;;;0.00;0.00;;;;;;;;5047194;27;114160;-71
2021/03/06 11:13:06;;;;;;;;;0.67;0.00;;;;;;;;5055119;27;111887;-71
2021/03/06 11:15:34;;;;;;;;;0.00;0.00;;;;;;;;5039740;27;113079;-72
2021/03/06 11:18:01;;;;;;;;;0.00;0.00;;;;;;;;5050667;27;112263;-74
2021/03/06 11:20:28;;;;;;;;;2.00;2.00;;;;;;;;5048709;27;114246;-72
2021/03/06 11:22:54;;;;;;;;;0.00;0.00;;;;;;;;5048952;27;114209;-74
2021/03/06 11:25:21;;;;;;;;;0.00;0.00;;;;;;;;5050399;27;111857;-72
2021/03/06 11:27:49;;;;;;;;;0.00;0.00;;;;;;;;5047971;27;113561;-71
2021/03/06 11:30:17;;;;;;;;;0.00;0.00;;;;;;;;5050291;27;114280;-71
2021/03/06 11:32:45;;;;;;;;;1.50;1.50;;;;;;;;5051061;27;112142;-71
2021/03/06 11:35:11;;;;;;;;;0.00;0.00;;;;;;;;5043440;27;112880;-71
2021/03/06 11:37:37;;;;;;;;;1.00;1.00;;;;;;;;5046476;27;111989;-71
2021/03/06 11:40:03;;;;;;;;;0.00;0.00;;;;;;;;5048559;27;113650;-71
2021/03/06 11:42:29;;;;;;;;;1.00;1.00;;;;;;;;5045452;27;113132;-72
2021/03/06 11:44:56;;;;;;;;;2.25;0.50;;;;;;;;5048280;27;111947;-72
2021/03/06 11:47:22;;;;;;;;;1.00;1.00;;;;;;;;5048337;27;113495;-72
2021/03/06 11:49:49;;;;;;;;;0.25;0.25;;;;;;;;5049781;27;113978;-74
2021/03/06 11:52:15;;;;;;;;;1.75;1.75;;;;;;;;5047092;27;112040;-77
2021/03/06 11:54:41;;;;;;;;;0.25;0.25;;;;;;;;5050433;27;113427;-76
2021/03/06 11:57:07;;;;;;;;;0.00;0.00;;;;;;;;5047137;27;112007;-76
2021/03/06 11:59:33;;;;;;;;;1.25;0.00;;;;;;;;5050527;27;113595;-78
2021/03/06 12:01:59;;;;;;;;;2.00;1.00;;;;;;;;5047844;27;112955;-75
2021/03/06 12:04:25;;;;;;;;;1.00;1.00;;;;;;;;5048907;27;112048;-75
2021/03/06 12:06:52;;;;;;;;;0.50;0.50;;;;;;;;5045162;27;114100;-75
2021/03/06 12:09:18;;;;;;;;;1.00;1.00;;;;;;;;5047652;27;114455;-75
2021/03/06 12:11:44;;;;;;;;;1.25;1.00;;;;;;;;5047635;27;111913;-75
2021/03/06 12:14:11;;;;;;;;;2.00;0.50;;;;;;;;5047381;27;113996;-75
2021/03/06 12:16:37;;;;;;;;;0.75;0.75;;;;;;;;5049125;27;114507;-75
2021/03/06 12:19:03;;;;;;;;;1.00;1.00;;;;;;;;5052865;27;113752;-73
2021/03/06 12:21:29;;;;;;;;;0.00;0.00;;;;;;;;5047598;27;114089;-80
2021/03/06 12:23:56;;;;;;;;;1.00;1.00;;;;;;;;5048992;27;111926;-78
2021/03/06 12:26:22;;;;;;;;;1.00;1.00;;;;;;;;5048098;27;114070;-76
2021/03/06 12:28:48;;;;;;;;;1.00;1.00;;;;;;;;5047390;27;114610;-75
2021/03/06 12:31:14;;;;;;;;;2.75;1.00;;;;;;;;5050030;27;112234;-73
2021/03/06 12:33:40;;;;;;;;;1.75;1.75;;;;;;;;5046620;27;113423;-74
2021/03/06 12:36:06;;;;;;;;;1.00;1.00;;;;;;;;5048973;27;115279;-72
2021/03/06 12:38:32;;;;;;;;;1.00;1.00;;;;;;;;5050166;27;112420;-71
2021/03/06 12:40:59;;;;;;;;;1.00;1.00;;;;;;;;5045927;27;114114;-71
2021/03/06 12:43:25;;;;;;;;;1.25;1.25;;;;;;;;5049160;27;112078;-73
2021/03/06 12:45:51;;;;;;;;;1.00;1.00;;;;;;;;5047676;27;113615;-77
2021/03/06 12:48:17;;;;;;;;;1.00;1.00;;;;;;;;5048515;27;114255;-73
2021/03/06 12:50:43;;;;;;;;;1.75;1.00;;;;;;;;5047249;27;112004;-73
2021/03/06 12:53:09;;;;;;;;;1.00;1.00;;;;;;;;5050138;27;113587;-73
2021/03/06 12:55:35;;;;;;;;;2.00;1.00;;;;;;;;5044923;27;114037;-74
2021/03/06 12:58:02;;;;;;;;;2.00;1.00;;;;;;;;5046026;27;113744;-75
2021/03/06 13:00:29;;;;;;;;;1.00;1.00;;;;;;;;5052060;27;113510;-71
2021/03/06 13:02:55;;;;;;;;;1.75;1.75;;;;;;;;5045864;27;115283;-72
2021/03/06 13:05:21;;;;;;;;;1.75;1.75;;;;;;;;5046408;27;113464;-71
2021/03/06 13:07:47;;;;;;;;;1.00;1.00;;;;;;;;5044707;27;114076;-71
2021/03/06 13:10:13;;;;;;;;;1.25;1.25;;;;;;;;5048463;27;112004;-73
2021/03/06 13:12:39;;;;;;;;;2.75;1.25;;;;;;;;5042275;27;113814;-73
2021/03/06 13:15:06;;;;;;;;;1.00;1.00;;;;;;;;5043175;27;114010;-73
2021/03/06 13:17:32;;;;;;;;;4.00;2.00;;;;;;;;5044701;27;112016;-72
2021/03/06 13:19:59;;;;;;;;;1.00;1.00;;;;;;;;5044036;27;113652;-72
2021/03/06 13:22:25;;;;;;;;;3.00;1.00;;;;;;;;5048615;27;111831;-70
2021/03/06 13:24:51;;;;;;;;;1.00;1.00;;;;;;;;5046474;27;113744;-72
2021/03/06 13:27:17;;;;;;;;;2.00;2.00;;;;;;;;5045305;27;113797;-71
2021/03/06 13:29:43;;;;;;;;;1.00;1.00;;;;;;;;5045310;27;112228;-71
2021/03/06 13:32:10;;;;;;;;;2.00;1.25;;;;;;;;5048734;27;113578;-71
2021/03/06 13:34:36;;;;;;;;;3.00;2.25;;;;;;;;5043045;27;113527;-72
2021/03/06 13:37:02;;;;;;;;;3.00;2.00;;;;;;;;5047414;27;112202;-70
2021/03/06 13:39:28;;;;;;;;;2.00;2.00;;;;;;;;5045091;27;113461;-71
2021/03/06 13:41:54;;;;;;;;;3.00;1.50;;;;;;;;5045562;27;114856;-72
2021/03/06 13:44:21;;;;;;;;;1.25;1.25;;;;;;;;5044624;27;113416;-75
2021/03/06 13:46:47;;;;;;;;;2.00;2.00;;;;;;;;5045385;27;113922;-73
2021/03/06 13:49:14;;;;;;;;;3.00;3.00;;;;;;;;5044167;27;113699;-75
2021/03/06 13:51:40;;;;;;;;;2.00;2.00;;;;;;;;5043005;27;113717;-74
2021/03/06 13:54:06;;;;;;;;;3.00;3.00;;;;;;;;5041359;27;113933;-76
2021/03/06 13:56:32;;;;;;;;;2.00;2.00;;;;;;;;5039929;27;112080;-75
2021/03/06 13:58:59;;;;;;;;;2.50;2.00;;;;;;;;5047569;27;113372;-73
2021/03/06 14:01:28;;;;;;;;;2.00;2.00;;;;;;;;5041709;27;114095;-75
2021/03/06 14:03:54;;;;;;;;;4.75;3.00;;;;;;;;5049151;27;112005;-74
2021/03/06 14:06:22;;;;;;;;;2.00;2.00;;;;;;;;5040199;27;114387;-74
2021/03/06 14:08:49;;;;;;;;;3.00;3.00;;;;;;;;5046406;27;112646;-74
2021/03/06 14:11:17;;;;;;;;;3.50;2.75;;;;;;;;5044653;27;113577;-73
2021/03/06 14:13:43;;;;;;;;;3.00;3.00;;;;;;;;5042120;27;114074;-74
2021/03/06 14:16:10;;;;;;;;;2.00;2.00;;;;;;;;5046754;27;111978;-78
2021/03/06 14:18:40;;;;;;;;;3.00;1.00;;;;;;;;5044178;27;112095;-78
2021/03/06 14:21:07;;;;;;;;;3.50;3.00;;;;;;;;5043445;27;115146;-76